Aeroporto :
LOGIN :

Iscrizione | Disclaimer

   EN    FR    IT 

 










Sommario :    VFR   VFR Marginale   IFR   IFR Intensivo   IFR Molto Intensivo
Visibilità : 
Base nubi : 
>= 8 km
>= 3000ft
5 / 8 km
1000 / 3000 ft
1500m / 5 km
500 / 1000 ft
800 / 1500m
200 / 500 ft
< 800m
< 200 ft
Simboli :   Temporali  Nebbia  Neve Forte  Precipitazioni Forti  Vento > 20 kt
SIGMETs :   Varie  Temporali  Ghiacco  Turbolenza  Onda orograficha  Ceneri Vulcaniche







- Altitudine del aeroporto : 401 ft
- Codice IATA : LEQ
- Carte del aeroporto


EGHC - Land's End

ULTIMO METAR :
  • 211120Z 34007KT 9999 SCT006 BKN025 19/17 Q1015

METARs OBSOLETI :
  • 211050Z 35007KT 9999 FEW004 SCT006 BKN025 19/17 Q1014
  • 211020Z 35008KT 9999 FEW002 SCT005 BKN022 18/17 Q1014
  • 210920Z 36009KT 9999 FEW004 SCT006 BKN025 18/17 Q1014
  • 210850Z 36010KT 9999 FEW004 SCT006 BKN025 18/17 Q1014

TAF TAF EGHC
Valido dal 21 a 12 ore il 21 a 18 ore UTC


211057Z 2112/2118 36010KT 9999 SCT030
PROB30
TEMPO 2112/2114 BKN006
Nessun NOTAM noto per questo aeroporto.



MetMap, La meteo Aeronautica in un colpo d'occhio ! - Copyright ORBIFLY Dicembre 2007 - Disclaimer

ORBIFLY MET'MAP TEAM :

Programmazione e sviluppo : Alexandra Zaïnal
Concezione e sviluppo : Baudouin d'Aumeries
Co-Programmazione e sviluppo : Marc-Olivier Méhu
Supporto tecnico e logistico : Manuel Goepfert
Aiuto per la traduzione : Arnaldo La Scala

Contatto : metmap@orbifly.com




FONTI E CREDITI :

   NOAA